Impacts TAF Board INFO
FOR SITUATIONAL AWARENESS. NOT TO BE USED FOR FLIGHT PLANNING PURPOSES.
IDs:

KDEN - Denver Intl, CO, US

Issued at 2059 UTC 24 Feb 2018
Updated at 2140 UTC 24 Feb 2018
Potential Impact None Slight Moderate High
Time<<25/10Z 25/11Z 25/12Z 25/13Z 25/14Z 25/15Z 25/16Z 25/17Z 25/18Z 25/19Z 25/20Z 25/21Z 25/22Z>>
Type PRVL PRVL PRVL PRVL PRVL PRVL PRVL PRVL PRVL PRVL PRVL PRVL PRVL
VIS >6 >6 >6 >6 >6 >6 >6 >6 >6 >6 >6 >6 >6
CIG 200 200 200 200 200 200 200 200 200 200 200 200 200
Cover BKN BKN BKN BKN BKN BKN BKN BKN BKN BKN BKN BKN BKN
FltCat VFR VFR VFR VFR VFR VFR VFR VFR VFR VFR VFR VFR VFR
WX -- -- -- -- -- -- -- -- -- -- -- -- --
WDir 210 210 210 210 210 240 240 240 240 270 270 270 270
WSpd 10 10 10 10 10 8 8 8 8 13 13 13 13
WGst -- -- -- -- -- -- -- -- -- -- -- -- --

Raw TAF
KDEN 242059Z 2421/2524 29017G26KT P6SM FEW070 SCT160
  FM242300 30014KT P6SM FEW160
  FM250100 26007KT P6SM SCT200
  FM250500 21010KT P6SM BKN200
  FM251500 24008KT P6SM SCT100 BKN200
  FM251900 27013KT P6SM SCT100 BKN200


METAR Board
Radar Display
Forecast Discussion

FOR SITUATIONAL AWARENESS. NOT TO BE USED FOR FLIGHT PLANNING PURPOSES.